Time;durP1;ratioP1;P1;durP2;ratioP2;P2;SDS_P1;SDS_P2;PMS_P1;PMS_P2;Temp;Humidity;BMP_temperature;BMP_pressure;BME280_temperature;BME280_humidity;BME280_pressure;Samples;Min_cycle;Max_cycle;Signal;HPM_P1;HPM_P2
2023/12/17 00:01:59;;;;;;;42.38;34.92;;;;;;;;;;4961139;28;20190;-43
2023/12/17 00:04:25;;;;;;;41.17;34.77;;;;;;;;;;4963691;28;20260;-43
2023/12/17 00:06:51;;;;;;;41.00;33.70;;;;;;;;;;4969019;28;20424;-44
2023/12/17 00:09:17;;;;;;;40.50;33.47;;;;;;;;;;4955319;28;20425;-45
2023/12/17 00:11:43;;;;;;;39.57;32.23;;;;;;;;;;4974030;28;20939;-43
2023/12/17 00:14:15;;;;;;;45.70;36.80;;;;;;;;;;4957935;28;20555;-43
2023/12/17 00:16:41;;;;;;;42.03;37.25;;;;;;;;;;4967672;28;20772;-43
2023/12/17 00:19:07;;;;;;;43.03;38.20;;;;;;;;;;4973359;28;20180;-43
2023/12/17 00:21:33;;;;;;;43.35;36.67;;;;;;;;;;4968572;28;20512;-43
2023/12/17 00:23:59;;;;;;;44.22;35.75;;;;;;;;;;4955725;28;20209;-43
2023/12/17 00:26:25;;;;;;;23.50;20.67;;;;;;;;;;4973803;28;20712;-43
2023/12/17 00:28:51;;;;;;;24.33;22.33;;;;;;;;;;4956530;28;20433;-44
2023/12/17 00:31:17;;;;;;;24.43;22.03;;;;;;;;;;4966889;28;20437;-44
2023/12/17 00:33:43;;;;;;;17.33;15.60;;;;;;;;;;4964856;28;20429;-43
2023/12/17 00:36:09;;;;;;;41.23;34.70;;;;;;;;;;4958913;28;20427;-43
2023/12/17 00:38:35;;;;;;;21.63;18.90;;;;;;;;;;4972735;28;20407;-43
2023/12/17 00:41:01;;;;;;;42.07;38.20;;;;;;;;;;4954139;28;20720;-43
2023/12/17 00:43:26;;;;;;;36.07;29.93;;;;;;;;;;4970061;28;20760;-43
2023/12/17 00:45:52;;;;;;;42.53;34.93;;;;;;;;;;4961230;28;20413;-44
2023/12/17 00:48:18;;;;;;;38.80;32.57;;;;;;;;;;4961930;28;20409;-44
2023/12/17 00:50:44;;;;;;;37.87;32.50;;;;;;;;;;4969090;28;20437;-43
2023/12/17 00:53:10;;;;;;;27.77;25.27;;;;;;;;;;4954125;28;20457;-43
2023/12/17 00:55:36;;;;;;;25.67;23.40;;;;;;;;;;4973329;28;20411;-43
2023/12/17 00:58:02;;;;;;;37.97;31.33;;;;;;;;;;4972659;28;20904;-43
2023/12/17 01:00:28;;;;;;;35.83;31.23;;;;;;;;;;4960790;28;20469;-43
2023/12/17 01:02:54;;;;;;;26.77;23.97;;;;;;;;;;4961230;28;20192;-43
2023/12/17 01:05:20;;;;;;;27.23;23.80;;;;;;;;;;4968900;28;20409;-44
2023/12/17 01:07:46;;;;;;;22.50;20.47;;;;;;;;;;4953786;28;20413;-44
2023/12/17 01:10:12;;;;;;;22.83;21.13;;;;;;;;;;4972383;28;20567;-43
2023/12/17 01:12:38;;;;;;;39.70;35.80;;;;;;;;;;4958016;28;20414;-43
2023/12/17 01:15:04;;;;;;;33.33;29.73;;;;;;;;;;4964640;28;20181;-43
2023/12/17 01:17:31;;;;;;;24.85;22.20;;;;;;;;;;4965956;28;20416;-43
2023/12/17 01:19:57;;;;;;;19.48;17.65;;;;;;;;;;4956376;28;20204;-43
2023/12/17 01:22:23;;;;;;;23.20;21.20;;;;;;;;;;4973016;28;20252;-43
2023/12/17 01:24:52;;;;;;;21.77;19.07;;;;;;;;;;4954172;28;20421;-43
2023/12/17 01:27:18;;;;;;;25.23;22.27;;;;;;;;;;4968501;28;20417;-43
2023/12/17 01:29:44;;;;;;;29.77;27.40;;;;;;;;;;4961528;28;20228;-43
2023/12/17 01:32:10;;;;;;;29.47;26.87;;;;;;;;;;4960515;28;20991;-44
2023/12/17 01:34:36;;;;;;;30.87;27.27;;;;;;;;;;4969797;28;20917;-43
2023/12/17 01:37:01;;;;;;;41.17;36.77;;;;;;;;;;4953547;28;20975;-43
2023/12/17 01:39:27;;;;;;;198.93;52.20;;;;;;;;;;4971398;28;20973;-43
2023/12/17 01:41:53;;;;;;;186.87;50.70;;;;;;;;;;4959598;28;20877;-44
2023/12/17 01:44:19;;;;;;;205.30;53.53;;;;;;;;;;4963941;28;20780;-43
2023/12/17 01:46:45;;;;;;;205.80;54.25;;;;;;;;;;4966465;28;20416;-44
2023/12/17 01:49:12;;;;;;;202.45;52.13;;;;;;;;;;4955825;28;20284;-43
2023/12/17 01:51:38;;;;;;;205.23;53.28;;;;;;;;;;4972778;28;20181;-43
2023/12/17 01:54:05;;;;;;;152.13;47.25;;;;;;;;;;4954917;28;20185;-44
2023/12/17 01:56:31;;;;;;;37.80;34.35;;;;;;;;;;4967648;28;20263;-43
2023/12/17 01:58:57;;;;;;;39.95;35.97;;;;;;;;;;4962758;28;20645;-43
2023/12/17 02:01:23;;;;;;;39.70;36.00;;;;;;;;;;4958531;28;20213;-43
2023/12/17 02:03:49;;;;;;;37.22;33.25;;;;;;;;;;4970192;28;20536;-43
2023/12/17 02:06:15;;;;;;;40.80;34.40;;;;;;;;;;4953118;28;20736;-43
2023/12/17 02:08:41;;;;;;;38.47;31.93;;;;;;;;;;4969922;28;20272;-44
2023/12/17 02:11:07;;;;;;;42.90;34.97;;;;;;;;;;4958940;28;21006;-44
2023/12/17 02:13:33;;;;;;;45.90;38.20;;;;;;;;;;4962912;28;20479;-43
2023/12/17 02:15:59;;;;;;;37.63;34.17;;;;;;;;;;4967747;28;20417;-43
2023/12/17 02:18:25;;;;;;;48.63;44.07;;;;;;;;;;4958503;28;20420;-43
2023/12/17 02:20:51;;;;;;;38.27;34.80;;;;;;;;;;4976267;28;20521;-44
2023/12/17 02:23:17;;;;;;;41.08;37.17;;;;;;;;;;4959134;28;20432;-44
2023/12/17 02:25:43;;;;;;;39.42;35.72;;;;;;;;;;4969812;28;20192;-43
2023/12/17 02:28:09;;;;;;;41.38;37.38;;;;;;;;;;4966988;28;20204;-43
2023/12/17 02:30:35;;;;;;;39.20;35.57;;;;;;;;;;4961418;28;20639;-43
2023/12/17 02:33:02;;;;;;;39.93;36.23;;;;;;;;;;4974944;28;20571;-43
2023/12/17 02:35:27;;;;;;;37.65;34.15;;;;;;;;;;4982662;28;20430;-43
2023/12/17 02:37:53;;;;;;;35.70;32.70;;;;;;;;;;4983819;28;20180;-42
2023/12/17 02:40:19;;;;;;;37.08;33.65;;;;;;;;;;4984561;28;20464;-42
2023/12/17 02:42:45;;;;;;;39.97;35.80;;;;;;;;;;4983275;28;20257;-43
2023/12/17 02:45:12;;;;;;;38.57;34.67;;;;;;;;;;4987227;28;20422;-43
2023/12/17 02:47:38;;;;;;;38.08;34.15;;;;;;;;;;4983610;28;20439;-42
2023/12/17 02:50:05;;;;;;;38.27;34.33;;;;;;;;;;4978675;28;20875;-43
2023/12/17 02:52:31;;;;;;;37.38;33.85;;;;;;;;;;4988550;28;20423;-43
2023/12/17 02:54:57;;;;;;;38.53;34.53;;;;;;;;;;4983702;28;20184;-43
2023/12/17 02:57:26;;;;;;;39.67;35.53;;;;;;;;;;4986141;28;20507;-43
2023/12/17 02:59:53;;;;;;;41.95;37.47;;;;;;;;;;4983012;28;20536;-43
2023/12/17 03:02:19;;;;;;;38.10;34.03;;;;;;;;;;4985031;28;20675;-43
2023/12/17 03:04:45;;;;;;;40.55;36.33;;;;;;;;;;4982808;28;20284;-43
2023/12/17 03:07:11;;;;;;;40.70;35.80;;;;;;;;;;4984030;28;20188;-43
2023/12/17 03:09:37;;;;;;;41.57;37.03;;;;;;;;;;4985977;28;20412;-43
2023/12/17 03:12:03;;;;;;;38.60;34.77;;;;;;;;;;4982241;28;20454;-43
2023/12/17 03:14:31;;;;;;;39.47;35.50;;;;;;;;;;4983405;28;20412;-43
2023/12/17 03:16:57;;;;;;;39.65;35.40;;;;;;;;;;4983600;28;20251;-43
2023/12/17 03:19:23;;;;;;;40.70;36.15;;;;;;;;;;4982974;28;20193;-43
2023/12/17 03:21:49;;;;;;;41.70;37.47;;;;;;;;;;4983045;28;20239;-43
2023/12/17 03:24:15;;;;;;;40.38;36.42;;;;;;;;;;4988171;28;20478;-43
2023/12/17 03:26:41;;;;;;;40.13;36.03;;;;;;;;;;4985227;28;20201;-42
2023/12/17 03:29:07;;;;;;;40.60;36.63;;;;;;;;;;4984306;28;20660;-43
2023/12/17 03:31:33;;;;;;;39.17;35.40;;;;;;;;;;4981428;28;20851;-43
2023/12/17 03:34:00;;;;;;;41.23;37.17;;;;;;;;;;4983678;28;20881;-44
2023/12/17 03:36:26;;;;;;;40.58;36.50;;;;;;;;;;4986390;28;20400;-42
2023/12/17 03:38:52;;;;;;;39.23;35.60;;;;;;;;;;4983107;28;20657;-44
2023/12/17 03:41:21;;;;;;;41.00;36.83;;;;;;;;;;4986208;28;20503;-42
2023/12/17 03:43:48;;;;;;;39.03;35.03;;;;;;;;;;4983817;28;20416;-43
2023/12/17 03:46:14;;;;;;;39.30;35.50;;;;;;;;;;4978773;28;20176;-43
2023/12/17 03:48:40;;;;;;;36.25;33.28;;;;;;;;;;4983062;28;20686;-43
2023/12/17 03:51:06;;;;;;;40.70;36.70;;;;;;;;;;4974558;28;20200;-43
2023/12/17 03:53:32;;;;;;;39.92;35.78;;;;;;;;;;4957703;28;20508;-43
2023/12/17 03:55:58;;;;;;;42.30;38.23;;;;;;;;;;4968025;28;20180;-43
2023/12/17 03:58:24;;;;;;;42.67;38.57;;;;;;;;;;4965239;28;20429;-43
2023/12/17 04:00:50;;;;;;;35.93;33.03;;;;;;;;;;4959771;28;20471;-44
2023/12/17 04:03:16;;;;;;;39.47;35.87;;;;;;;;;;4973416;28;20526;-44
2023/12/17 04:05:42;;;;;;;36.10;32.73;;;;;;;;;;4955264;28;20410;-43
2023/12/17 04:08:09;;;;;;;38.80;35.58;;;;;;;;;;4971354;28;20534;-43
2023/12/17 04:10:35;;;;;;;38.63;35.13;;;;;;;;;;4961775;28;20294;-43
2023/12/17 04:13:01;;;;;;;37.80;34.17;;;;;;;;;;4963261;28;20478;-43
2023/12/17 04:15:27;;;;;;;42.13;37.58;;;;;;;;;;4969790;28;20437;-44
2023/12/17 04:17:53;;;;;;;41.33;36.93;;;;;;;;;;4955401;28;20178;-43
2023/12/17 04:20:19;;;;;;;41.07;36.90;;;;;;;;;;4973874;28;20460;-43
2023/12/17 04:22:45;;;;;;;42.15;38.08;;;;;;;;;;4958034;28;20481;-43
2023/12/17 04:25:11;;;;;;;42.37;38.00;;;;;;;;;;4966595;28;20291;-43
2023/12/17 04:27:37;;;;;;;40.88;36.72;;;;;;;;;;4965934;28;20442;-43
2023/12/17 04:30:03;;;;;;;41.50;37.30;;;;;;;;;;4954993;28;20244;-43
2023/12/17 04:32:29;;;;;;;42.22;37.55;;;;;;;;;;4954714;28;20441;-43
2023/12/17 04:34:55;;;;;;;43.80;37.83;;;;;;;;;;4974025;28;20215;-43
2023/12/17 04:37:24;;;;;;;42.08;37.47;;;;;;;;;;4958482;28;20413;-44
2023/12/17 04:39:50;;;;;;;44.00;38.42;;;;;;;;;;4964939;28;20745;-43
2023/12/17 04:42:17;;;;;;;44.42;38.40;;;;;;;;;;4965892;28;20264;-43
2023/12/17 04:44:42;;;;;;;40.60;36.70;;;;;;;;;;4954988;28;20178;-43
2023/12/17 04:47:08;;;;;;;40.27;36.50;;;;;;;;;;4954563;28;20180;-43
2023/12/17 04:49:35;;;;;;;39.77;35.87;;;;;;;;;;4973263;28;20433;-43
2023/12/17 04:52:01;;;;;;;40.85;37.13;;;;;;;;;;4958296;28;20485;-43
2023/12/17 04:54:27;;;;;;;40.30;36.83;;;;;;;;;;4965686;28;20605;-43
2023/12/17 04:56:54;;;;;;;39.33;35.70;;;;;;;;;;4966113;28;20181;-43
2023/12/17 04:59:21;;;;;;;39.53;35.72;;;;;;;;;;4954503;28;20173;-43
2023/12/17 05:01:47;;;;;;;37.97;34.35;;;;;;;;;;4954105;28;20209;-43
2023/12/17 05:04:13;;;;;;;38.90;35.50;;;;;;;;;;4954650;28;20551;-43
2023/12/17 05:06:39;;;;;;;41.10;37.08;;;;;;;;;;4969241;28;20405;-43
2023/12/17 05:09:04;;;;;;;42.47;38.57;;;;;;;;;;4975636;28;20612;-43
2023/12/17 05:11:30;;;;;;;39.23;35.23;;;;;;;;;;4987362;28;20970;-43
2023/12/17 05:13:56;;;;;;;44.17;39.57;;;;;;;;;;4979907;28;20975;-43
2023/12/17 05:16:22;;;;;;;43.20;38.90;;;;;;;;;;4981996;28;20894;-43
2023/12/17 05:18:48;;;;;;;39.30;35.80;;;;;;;;;;4986376;28;20900;-43
2023/12/17 05:21:14;;;;;;;40.13;36.20;;;;;;;;;;4984243;28;21005;-43
2023/12/17 05:23:40;;;;;;;42.53;38.20;;;;;;;;;;4984203;28;20912;-42
2023/12/17 05:26:06;;;;;;;38.53;34.93;;;;;;;;;;4987641;28;20830;-44
2023/12/17 05:28:32;;;;;;;42.73;38.53;;;;;;;;;;4984165;28;20821;-44
2023/12/17 05:30:58;;;;;;;44.22;39.63;;;;;;;;;;4977736;28;20435;-43
2023/12/17 05:33:24;;;;;;;40.43;36.30;;;;;;;;;;4982948;28;20561;-43
2023/12/17 05:35:50;;;;;;;41.47;36.90;;;;;;;;;;4982925;28;20783;-43
2023/12/17 05:38:16;;;;;;;44.03;39.60;;;;;;;;;;4983809;28;20815;-44
2023/12/17 05:40:42;;;;;;;39.97;36.17;;;;;;;;;;4982193;28;20504;-43
2023/12/17 05:43:09;;;;;;;40.60;36.60;;;;;;;;;;4983989;28;20564;-43
2023/12/17 05:45:35;;;;;;;41.88;38.10;;;;;;;;;;4980289;28;20184;-43
2023/12/17 05:48:01;;;;;;;41.17;37.07;;;;;;;;;;4975982;28;20600;-44
2023/12/17 05:50:27;;;;;;;41.67;37.47;;;;;;;;;;4983850;28;20527;-42
2023/12/17 05:52:53;;;;;;;38.67;34.87;;;;;;;;;;4984392;28;20427;-43
2023/12/17 05:55:20;;;;;;;40.13;36.03;;;;;;;;;;4987833;28;20477;-43
2023/12/17 05:57:49;;;;;;;41.85;37.85;;;;;;;;;;4984686;28;20412;-43
2023/12/17 06:00:16;;;;;;;41.75;37.60;;;;;;;;;;4985991;28;20205;-43
2023/12/17 06:02:42;;;;;;;42.83;38.65;;;;;;;;;;4980460;28;20191;-43
2023/12/17 06:05:08;;;;;;;42.50;38.20;;;;;;;;;;4990975;28;20173;-42
2023/12/17 06:07:34;;;;;;;42.67;38.53;;;;;;;;;;4986860;28;20552;-42
2023/12/17 06:10:00;;;;;;;43.83;39.23;;;;;;;;;;4982570;28;20201;-43
2023/12/17 06:12:26;;;;;;;41.17;37.13;;;;;;;;;;4984232;28;20429;-43
2023/12/17 06:14:52;;;;;;;42.83;38.37;;;;;;;;;;4976341;28;20449;-43
2023/12/17 06:17:18;;;;;;;42.03;37.50;;;;;;;;;;4958323;28;20905;-43
2023/12/17 06:19:44;;;;;;;43.10;38.70;;;;;;;;;;4970254;28;20548;-43
2023/12/17 06:22:15;;;;;;;40.93;36.50;;;;;;;;;;4975987;28;20447;-42
2023/12/17 06:24:41;;;;;;;41.72;37.22;;;;;;;;;;4969450;28;20774;-43
2023/12/17 06:27:13;;;;;;;41.20;37.20;;;;;;;;;;4959384;28;20173;-44
2023/12/17 06:29:39;;;;;;;42.83;38.75;;;;;;;;;;4975963;28;20395;-43
2023/12/17 06:32:07;;;;;;;40.87;37.20;;;;;;;;;;4957075;28;20647;-44
2023/12/17 06:34:33;;;;;;;40.60;36.63;;;;;;;;;;4971680;28;20487;-43
2023/12/17 06:37:00;;;;;;;43.73;39.57;;;;;;;;;;4964803;28;20261;-43
2023/12/17 06:39:26;;;;;;;41.72;37.78;;;;;;;;;;4963398;28;20988;-43
2023/12/17 06:41:52;;;;;;;40.90;37.30;;;;;;;;;;4972325;28;20296;-43
2023/12/17 06:44:18;;;;;;;40.00;36.10;;;;;;;;;;4956710;28;20761;-44
2023/12/17 06:46:44;;;;;;;43.92;39.53;;;;;;;;;;4975141;28;20174;-43
2023/12/17 06:49:10;;;;;;;39.72;36.20;;;;;;;;;;4960622;28;20213;-43
2023/12/17 06:51:40;;;;;;;42.42;38.40;;;;;;;;;;4967017;28;20277;-43
2023/12/17 06:54:06;;;;;;;42.42;37.95;;;;;;;;;;4968471;28;20686;-43
2023/12/17 06:56:32;;;;;;;44.97;40.17;;;;;;;;;;4969692;28;20212;-43
2023/12/17 06:58:58;;;;;;;43.07;37.83;;;;;;;;;;4974809;28;20259;-43
2023/12/17 07:01:24;;;;;;;41.03;36.57;;;;;;;;;;4956571;28;20457;-43
2023/12/17 07:03:50;;;;;;;44.47;39.77;;;;;;;;;;4969206;28;20413;-43
2023/12/17 07:06:17;;;;;;;47.40;40.37;;;;;;;;;;4963971;28;20433;-43
2023/12/17 07:08:43;;;;;;;44.85;38.92;;;;;;;;;;4962189;28;20994;-43
2023/12/17 07:11:09;;;;;;;44.50;38.70;;;;;;;;;;4971779;28;20285;-44
2023/12/17 07:13:35;;;;;;;41.10;36.67;;;;;;;;;;4955713;28;20406;-43
2023/12/17 07:16:01;;;;;;;41.90;37.50;;;;;;;;;;4973481;28;20417;-43
2023/12/17 07:18:27;;;;;;;43.65;37.38;;;;;;;;;;4994696;28;20452;-43
2023/12/17 07:20:53;;;;;;;44.83;39.15;;;;;;;;;;4974509;28;20216;-43
2023/12/17 07:23:22;;;;;;;43.23;36.80;;;;;;;;;;4968683;28;20511;-43
2023/12/17 07:25:48;;;;;;;44.80;36.25;;;;;;;;;;4957997;28;20427;-43
2023/12/17 07:28:14;;;;;;;43.80;36.55;;;;;;;;;;4974939;28;20349;-43
2023/12/17 07:30:39;;;;;;;46.07;39.60;;;;;;;;;;4956525;28;20326;-43
2023/12/17 07:33:06;;;;;;;45.67;39.63;;;;;;;;;;4969600;28;20413;-43
2023/12/17 07:35:34;;;;;;;44.13;36.13;;;;;;;;;;4964837;28;20495;-43
2023/12/17 07:38:00;;;;;;;44.95;34.67;;;;;;;;;;4961692;28;20177;-43
2023/12/17 07:40:26;;;;;;;45.58;37.65;;;;;;;;;;4971893;28;20216;-43
2023/12/17 07:42:52;;;;;;;43.35;37.38;;;;;;;;;;4956119;28;20174;-43
2023/12/17 07:45:18;;;;;;;47.93;40.70;;;;;;;;;;4973405;28;20178;-43
2023/12/17 07:47:47;;;;;;;42.07;37.57;;;;;;;;;;4960738;28;20504;-44
2023/12/17 07:50:15;;;;;;;43.45;38.80;;;;;;;;;;4964977;28;20450;-42
2023/12/17 07:52:41;;;;;;;42.08;36.50;;;;;;;;;;4967772;28;20228;-43
2023/12/17 07:55:07;;;;;;;46.23;41.43;;;;;;;;;;4957891;28;20185;-44
2023/12/17 07:57:33;;;;;;;43.90;38.95;;;;;;;;;;4974371;28;20397;-43
2023/12/17 07:59:59;;;;;;;42.30;37.70;;;;;;;;;;4955590;28;20198;-43
2023/12/17 08:02:26;;;;;;;43.10;38.50;;;;;;;;;;4968631;28;20248;-43
2023/12/17 08:04:52;;;;;;;44.55;39.78;;;;;;;;;;4963988;28;20799;-42
2023/12/17 08:07:18;;;;;;;42.13;37.50;;;;;;;;;;4960882;28;20200;-43
2023/12/17 08:09:44;;;;;;;42.30;37.75;;;;;;;;;;4971592;28;20397;-43
2023/12/17 08:12:10;;;;;;;43.43;38.97;;;;;;;;;;4954830;28;20574;-44
2023/12/17 08:14:36;;;;;;;41.60;37.40;;;;;;;;;;4971957;28;20492;-44
2023/12/17 08:17:02;;;;;;;42.78;38.30;;;;;;;;;;4960250;28;20237;-44
2023/12/17 08:19:28;;;;;;;42.92;38.33;;;;;;;;;;4963811;28;20263;-43
2023/12/17 08:21:57;;;;;;;41.27;36.97;;;;;;;;;;4968206;28;20300;-43
2023/12/17 08:24:23;;;;;;;43.17;38.88;;;;;;;;;;4956556;28;20402;-43
2023/12/17 08:26:50;;;;;;;41.97;37.73;;;;;;;;;;4973583;28;20657;-43
2023/12/17 08:29:17;;;;;;;38.00;34.63;;;;;;;;;;4955676;28;20421;-43
2023/12/17 08:31:44;;;;;;;40.80;37.05;;;;;;;;;;4967971;28;20714;-43
2023/12/17 08:34:10;;;;;;;44.20;39.78;;;;;;;;;;4963588;28;20185;-43
2023/12/17 08:36:36;;;;;;;43.13;38.88;;;;;;;;;;4960193;28;20208;-43
2023/12/17 08:39:05;;;;;;;42.53;37.92;;;;;;;;;;4971206;28;20204;-43
2023/12/17 08:41:31;;;;;;;41.83;37.40;;;;;;;;;;4954194;28;20202;-43
2023/12/17 08:43:57;;;;;;;41.53;37.13;;;;;;;;;;4971631;28;20170;-43
2023/12/17 08:46:23;;;;;;;43.00;38.37;;;;;;;;;;4959635;28;20213;-43
2023/12/17 08:48:49;;;;;;;43.00;38.50;;;;;;;;;;4963632;28;20442;-44
2023/12/17 08:51:15;;;;;;;45.53;40.57;;;;;;;;;;4967593;28;20437;-43
2023/12/17 08:53:41;;;;;;;42.83;38.23;;;;;;;;;;4955704;28;20441;-43
2023/12/17 08:56:08;;;;;;;41.75;37.22;;;;;;;;;;4973360;28;20471;-43
2023/12/17 08:58:34;;;;;;;46.13;41.58;;;;;;;;;;4972983;28;20189;-43
2023/12/17 09:01:00;;;;;;;45.00;40.20;;;;;;;;;;4959591;28;20291;-43
2023/12/17 09:03:26;;;;;;;43.90;37.73;;;;;;;;;;4963023;28;20427;-44
2023/12/17 09:05:52;;;;;;;44.57;38.00;;;;;;;;;;4967980;28;20943;-43
2023/12/17 09:08:18;;;;;;;49.13;42.13;;;;;;;;;;4955019;28;20905;-43
2023/12/17 09:10:44;;;;;;;50.27;42.07;;;;;;;;;;4969783;28;20944;-43
2023/12/17 09:13:10;;;;;;;45.53;38.07;;;;;;;;;;4978406;28;20862;-44
2023/12/17 09:15:37;;;;;;;47.38;40.65;;;;;;;;;;4981500;28;20426;-43
2023/12/17 09:18:04;;;;;;;22.88;20.60;;;;;;;;;;4982467;28;20322;-43
2023/12/17 09:20:30;;;;;;;47.80;42.08;;;;;;;;;;4977271;28;20242;-43
2023/12/17 09:22:57;;;;;;;47.87;42.07;;;;;;;;;;4987017;28;20270;-43
2023/12/17 09:25:23;;;;;;;27.42;24.50;;;;;;;;;;4981491;28;20411;-43
2023/12/17 09:27:51;;;;;;;49.08;43.38;;;;;;;;;;4979572;28;20719;-43
2023/12/17 09:30:17;;;;;;;34.83;31.20;;;;;;;;;;4974941;28;20193;-43
2023/12/17 09:32:44;;;;;;;49.53;42.35;;;;;;;;;;4980970;28;20260;-43
2023/12/17 09:35:10;;;;;;;49.72;44.40;;;;;;;;;;4980808;28;20226;-43
2023/12/17 09:37:36;;;;;;;48.55;43.25;;;;;;;;;;4980761;28;20704;-43
2023/12/17 09:40:03;;;;;;;47.40;42.03;;;;;;;;;;4985212;28;20635;-43
2023/12/17 09:42:29;;;;;;;36.72;32.65;;;;;;;;;;4980874;28;20554;-43
2023/12/17 09:44:55;;;;;;;46.57;41.00;;;;;;;;;;4977575;28;20191;-42
2023/12/17 09:47:21;;;;;;;35.27;31.50;;;;;;;;;;4980191;28;20417;-43
2023/12/17 09:49:47;;;;;;;47.43;42.30;;;;;;;;;;4979638;28;20433;-42
2023/12/17 09:52:16;;;;;;;37.65;33.60;;;;;;;;;;4974986;28;20413;-43
2023/12/17 09:54:42;;;;;;;34.22;30.25;;;;;;;;;;4960713;28;20206;-43
2023/12/17 09:57:09;;;;;;;47.25;42.13;;;;;;;;;;4961229;28;20169;-43
2023/12/17 09:59:35;;;;;;;208.93;57.17;;;;;;;;;;4967492;28;20229;-44
2023/12/17 10:02:01;;;;;;;208.55;57.53;;;;;;;;;;4953215;28;20293;-44
2023/12/17 10:04:28;;;;;;;206.07;57.40;;;;;;;;;;4953312;28;20166;-44
2023/12/17 10:06:54;;;;;;;202.20;55.72;;;;;;;;;;4968894;28;20166;-43
2023/12/17 10:09:20;;;;;;;206.73;58.50;;;;;;;;;;4960563;28;20170;-43
2023/12/17 10:11:46;;;;;;;202.65;56.47;;;;;;;;;;4960763;28;20705;-43
2023/12/17 10:14:21;;;;;;;200.57;54.53;;;;;;;;;;4968648;28;20638;-43
2023/12/17 10:16:48;;;;;;;207.07;59.35;;;;;;;;;;4953433;28;20200;-44
2023/12/17 10:19:14;;;;;;;195.93;54.70;;;;;;;;;;4966285;28;20186;-43
2023/12/17 10:21:40;;;;;;;169.73;52.03;;;;;;;;;;4971640;28;20209;-43
2023/12/17 10:24:07;;;;;;;172.63;53.85;;;;;;;;;;4959852;28;20406;-43
2023/12/17 10:26:48;;;;;;;164.45;52.13;;;;;;;;;;4953824;28;20174;-43
2023/12/17 10:29:15;;;;;;;170.93;55.60;;;;;;;;;;4959123;28;20178;-43
2023/12/17 10:31:41;;;;;;;167.55;54.70;;;;;;;;;;4967564;28;20197;-43
2023/12/17 10:34:14;;;;;;;158.13;54.60;;;;;;;;;;4951250;28;20265;-43
2023/12/17 10:36:40;;;;;;;150.80;52.40;;;;;;;;;;4971274;28;20174;-43
2023/12/17 10:39:07;;;;;;;148.63;50.55;;;;;;;;;;4958652;28;20178;-43
2023/12/17 10:41:34;;;;;;;163.82;53.95;;;;;;;;;;4967404;28;20201;-43
2023/12/17 10:44:00;;;;;;;156.85;52.38;;;;;;;;;;4967890;28;20178;-43
2023/12/17 10:46:26;;;;;;;165.18;52.95;;;;;;;;;;4959628;28;20182;-43
2023/12/17 10:48:53;;;;;;;165.27;53.75;;;;;;;;;;4975386;28;20169;-43
2023/12/17 10:51:19;;;;;;;166.77;53.70;;;;;;;;;;4956570;28;20258;-43
2023/12/17 10:53:45;;;;;;;164.93;52.97;;;;;;;;;;4971149;28;20177;-43
2023/12/17 10:56:12;;;;;;;169.90;53.30;;;;;;;;;;4974828;28;20204;-43
2023/12/17 10:58:39;;;;;;;181.63;59.33;;;;;;;;;;4968021;28;20421;-43
2023/12/17 11:01:05;;;;;;;168.77;52.45;;;;;;;;;;4980099;28;20236;-43
2023/12/17 11:03:31;;;;;;;168.73;54.10;;;;;;;;;;4974824;28;20637;-44
2023/12/17 11:05:59;;;;;;;167.32;52.80;;;;;;;;;;4975294;28;20558;-43
2023/12/17 11:08:25;;;;;;;181.95;60.88;;;;;;;;;;4974830;28;20170;-43
2023/12/17 11:10:52;;;;;;;170.13;53.20;;;;;;;;;;4974973;28;20209;-43
2023/12/17 11:13:22;;;;;;;167.55;52.15;;;;;;;;;;4975264;28;20184;-43
2023/12/17 11:15:48;;;;;;;172.38;52.30;;;;;;;;;;4975007;28;20181;-43
2023/12/17 11:18:15;;;;;;;179.82;56.28;;;;;;;;;;4974850;28;20595;-43
2023/12/17 11:20:41;;;;;;;179.85;53.97;;;;;;;;;;4974737;28;20296;-43
2023/12/17 11:23:07;;;;;;;177.85;54.85;;;;;;;;;;4974680;28;20193;-43
2023/12/17 11:25:34;;;;;;;174.03;52.90;;;;;;;;;;4974941;28;20166;-43
2023/12/17 11:28:01;;;;;;;160.95;52.13;;;;;;;;;;4974796;28;20783;-43
2023/12/17 11:30:27;;;;;;;159.48;50.88;;;;;;;;;;4974477;28;20208;-43
2023/12/17 11:32:53;;;;;;;164.45;54.10;;;;;;;;;;4974755;28;20177;-43
2023/12/17 11:35:19;;;;;;;166.33;53.50;;;;;;;;;;4974664;28;20193;-43
2023/12/17 11:37:45;;;;;;;170.48;54.90;;;;;;;;;;4974442;28;20417;-43
2023/12/17 11:40:11;;;;;;;177.27;55.40;;;;;;;;;;4974101;28;20250;-43
2023/12/17 11:42:40;;;;;;;171.20;54.70;;;;;;;;;;4974573;28;20172;-43
2023/12/17 11:45:06;;;;;;;176.43;57.03;;;;;;;;;;4974645;28;20173;-43
2023/12/17 11:47:33;;;;;;;166.30;54.92;;;;;;;;;;4974416;28;20204;-43
2023/12/17 11:50:02;;;;;;;160.10;52.10;;;;;;;;;;4973610;28;20206;-44
2023/12/17 11:52:29;;;;;;;126.55;50.65;;;;;;;;;;4974209;28;20186;-43
2023/12/17 11:55:03;;;;;;;136.93;51.47;;;;;;;;;;4974232;28;20860;-43
2023/12/17 11:57:30;;;;;;;131.30;49.25;;;;;;;;;;4974192;28;20184;-43
2023/12/17 11:59:56;;;;;;;133.70;50.22;;;;;;;;;;4974096;28;20688;-43
2023/12/17 12:02:22;;;;;;;133.97;51.03;;;;;;;;;;4974010;28;20189;-44
2023/12/17 12:04:51;;;;;;;125.43;50.25;;;;;;;;;;4973991;28;20409;-43
2023/12/17 12:07:20;;;;;;;134.60;52.28;;;;;;;;;;4974074;28;20169;-43
2023/12/17 12:09:46;;;;;;;138.75;50.25;;;;;;;;;;4973564;28;20173;-43
2023/12/17 12:12:16;;;;;;;115.95;40.72;;;;;;;;;;4974253;28;20177;-43
2023/12/17 12:14:43;;;;;;;162.48;54.78;;;;;;;;;;4973966;28;20196;-43
2023/12/17 12:17:29;;;;;;;165.10;56.30;;;;;;;;;;4973725;28;20188;-43
2023/12/17 12:19:55;;;;;;;163.75;55.78;;;;;;;;;;4973337;28;20228;-44
2023/12/17 12:22:27;;;;;;;131.53;50.50;;;;;;;;;;4973501;28;20539;-43
2023/12/17 12:24:56;;;;;;;153.15;56.00;;;;;;;;;;4972600;28;20455;-43
2023/12/17 12:27:23;;;;;;;142.43;57.20;;;;;;;;;;4972379;28;20173;-43
2023/12/17 12:29:49;;;;;;;148.27;53.70;;;;;;;;;;4965602;28;20198;-44
2023/12/17 12:32:31;;;;;;;161.87;58.37;;;;;;;;;;4971967;28;20610;-43
2023/12/17 12:34:57;;;;;;;151.57;54.83;;;;;;;;;;4959614;28;20410;-43
2023/12/17 12:37:32;;;;;;;136.13;52.92;;;;;;;;;;4961186;28;20170;-44
2023/12/17 12:39:58;;;;;;;163.35;57.65;;;;;;;;;;4967520;28;20244;-43
2023/12/17 12:42:24;;;;;;;150.20;53.60;;;;;;;;;;4970865;28;20645;-43
2023/12/17 12:44:50;;;;;;;147.63;52.93;;;;;;;;;;4967241;28;20822;-43
2023/12/17 12:47:17;;;;;;;126.25;49.88;;;;;;;;;;4973231;28;20410;-43
2023/12/17 12:49:43;;;;;;;73.82;37.55;;;;;;;;;;4959796;28;20174;-43
2023/12/17 12:52:09;;;;;;;122.87;50.30;;;;;;;;;;4963300;28;20183;-43
2023/12/17 12:54:35;;;;;;;113.70;49.50;;;;;;;;;;4972392;28;20408;-43
2023/12/17 12:57:01;;;;;;;112.53;48.70;;;;;;;;;;4971648;28;20623;-43
2023/12/17 12:59:27;;;;;;;109.33;48.70;;;;;;;;;;4970951;28;20787;-43
2023/12/17 13:01:57;;;;;;;106.50;48.90;;;;;;;;;;4965396;28;20987;-43
2023/12/17 13:04:23;;;;;;;76.22;37.08;;;;;;;;;;4970902;28;20416;-44
2023/12/17 13:06:49;;;;;;;74.10;37.07;;;;;;;;;;4972088;28;20173;-43
2023/12/17 13:09:15;;;;;;;105.63;47.17;;;;;;;;;;4968141;28;20864;-43
2023/12/17 13:11:41;;;;;;;115.17;52.00;;;;;;;;;;4964438;28;20777;-43
2023/12/17 13:14:07;;;;;;;115.37;47.73;;;;;;;;;;4975903;28;20456;-43
2023/12/17 13:16:34;;;;;;;126.37;51.77;;;;;;;;;;4957224;28;20433;-43
2023/12/17 13:19:00;;;;;;;130.95;51.08;;;;;;;;;;4953445;28;20789;-43
2023/12/17 13:21:26;;;;;;;107.17;47.97;;;;;;;;;;4962275;28;20219;-43
2023/12/17 13:23:52;;;;;;;71.15;38.03;;;;;;;;;;4968145;28;20488;-43
2023/12/17 13:26:18;;;;;;;102.53;48.60;;;;;;;;;;4954395;28;20634;-43
2023/12/17 13:28:45;;;;;;;95.10;47.33;;;;;;;;;;4972724;28;20404;-43
2023/12/17 13:31:11;;;;;;;93.10;46.65;;;;;;;;;;4956398;28;20441;-43
2023/12/17 13:33:37;;;;;;;95.77;54.37;;;;;;;;;;4965125;28;20188;-43
2023/12/17 13:36:03;;;;;;;57.67;36.47;;;;;;;;;;4964327;28;20436;-43
2023/12/17 13:38:29;;;;;;;88.47;47.90;;;;;;;;;;4957458;28;20421;-43
2023/12/17 13:40:55;;;;;;;91.85;48.58;;;;;;;;;;4972066;28;20201;-43
2023/12/17 13:43:22;;;;;;;91.50;48.47;;;;;;;;;;4954152;28;20178;-43
2023/12/17 13:45:48;;;;;;;45.70;36.20;;;;;;;;;;4969324;28;20409;-42
2023/12/17 13:48:15;;;;;;;48.85;37.08;;;;;;;;;;4960863;28;20716;-43
2023/12/17 13:50:44;;;;;;;55.45;38.53;;;;;;;;;;4961305;28;20214;-43
2023/12/17 13:53:10;;;;;;;46.42;36.28;;;;;;;;;;4968242;28;20650;-43
2023/12/17 13:55:36;;;;;;;39.28;35.33;;;;;;;;;;4959970;28;20182;-43
2023/12/17 13:58:02;;;;;;;42.88;38.70;;;;;;;;;;4972035;28;20641;-43
2023/12/17 14:00:28;;;;;;;43.10;37.30;;;;;;;;;;4955855;28;20345;-43
2023/12/17 14:02:54;;;;;;;36.80;33.55;;;;;;;;;;4965116;28;20421;-43
2023/12/17 14:05:20;;;;;;;42.90;38.27;;;;;;;;;;4964697;28;20552;-42
2023/12/17 14:07:46;;;;;;;41.53;37.37;;;;;;;;;;4957238;28;20413;-42
2023/12/17 14:10:12;;;;;;;40.40;36.40;;;;;;;;;;4972064;28;20433;-43